sensor_id;sensor_type;location;lat;lon;timestamp;P1;durP1;ratioP1;P2;durP2;ratioP2
56653;SDS011;45096;52.302;4.634;2022-11-12T00:01:11;6.85;;;5.97;;
56653;SDS011;45096;52.302;4.634;2022-11-12T00:03:37;7.65;;;6.43;;
56653;SDS011;45096;52.302;4.634;2022-11-12T00:06:04;6.90;;;6.15;;
56653;SDS011;45096;52.302;4.634;2022-11-12T00:08:29;9.88;;;6.47;;
56653;SDS011;45096;52.302;4.634;2022-11-12T00:10:54;7.53;;;6.47;;
56653;SDS011;45096;52.302;4.634;2022-11-12T00:13:20;7.43;;;6.38;;
56653;SDS011;45096;52.302;4.634;2022-11-12T00:15:45;6.25;;;5.65;;
56653;SDS011;45096;52.302;4.634;2022-11-12T00:18:11;7.30;;;6.40;;
56653;SDS011;45096;52.302;4.634;2022-11-12T00:20:37;7.93;;;6.20;;
56653;SDS011;45096;52.302;4.634;2022-11-12T00:23:03;6.38;;;5.78;;
56653;SDS011;45096;52.302;4.634;2022-11-12T00:25:29;6.97;;;6.25;;
56653;SDS011;45096;52.302;4.634;2022-11-12T00:27:59;7.88;;;6.35;;
56653;SDS011;45096;52.302;4.634;2022-11-12T00:30:25;6.85;;;6.05;;
56653;SDS011;45096;52.302;4.634;2022-11-12T00:32:50;7.72;;;6.85;;
56653;SDS011;45096;52.302;4.634;2022-11-12T00:35:16;6.18;;;5.63;;
56653;SDS011;45096;52.302;4.634;2022-11-12T00:37:41;8.63;;;6.65;;
56653;SDS011;45096;52.302;4.634;2022-11-12T00:40:09;7.80;;;5.93;;
56653;SDS011;45096;52.302;4.634;2022-11-12T00:42:34;8.43;;;6.88;;
56653;SDS011;45096;52.302;4.634;2022-11-12T00:45:00;9.60;;;6.82;;
56653;SDS011;45096;52.302;4.634;2022-11-12T00:47:25;7.25;;;5.57;;
56653;SDS011;45096;52.302;4.634;2022-11-12T00:49:51;7.35;;;6.10;;
56653;SDS011;45096;52.302;4.634;2022-11-12T00:52:16;7.18;;;6.15;;
56653;SDS011;45096;52.302;4.634;2022-11-12T00:54:41;7.10;;;6.38;;
56653;SDS011;45096;52.302;4.634;2022-11-12T00:57:08;6.95;;;5.70;;
56653;SDS011;45096;52.302;4.634;2022-11-12T00:59:34;7.57;;;6.22;;
56653;SDS011;45096;52.302;4.634;2022-11-12T01:01:59;8.13;;;6.20;;
56653;SDS011;45096;52.302;4.634;2022-11-12T01:04:24;8.63;;;6.63;;
56653;SDS011;45096;52.302;4.634;2022-11-12T01:06:50;9.02;;;6.22;;
56653;SDS011;45096;52.302;4.634;2022-11-12T01:09:15;7.20;;;6.45;;
56653;SDS011;45096;52.302;4.634;2022-11-12T01:11:41;9.35;;;6.53;;
56653;SDS011;45096;52.302;4.634;2022-11-12T01:14:08;8.85;;;6.85;;
56653;SDS011;45096;52.302;4.634;2022-11-12T01:16:34;7.28;;;6.20;;
56653;SDS011;45096;52.302;4.634;2022-11-12T01:19:02;6.53;;;5.68;;
56653;SDS011;45096;52.302;4.634;2022-11-12T01:21:28;8.85;;;7.13;;
56653;SDS011;45096;52.302;4.634;2022-11-12T01:23:55;9.60;;;6.63;;
56653;SDS011;45096;52.302;4.634;2022-11-12T01:26:21;8.05;;;6.65;;
56653;SDS011;45096;52.302;4.634;2022-11-12T01:28:47;9.07;;;7.22;;
56653;SDS011;45096;52.302;4.634;2022-11-12T01:31:15;8.23;;;7.13;;
56653;SDS011;45096;52.302;4.634;2022-11-12T01:33:41;7.25;;;6.35;;
56653;SDS011;45096;52.302;4.634;2022-11-12T01:36:08;8.45;;;6.18;;
56653;SDS011;45096;52.302;4.634;2022-11-12T01:38:35;10.13;;;7.57;;
56653;SDS011;45096;52.302;4.634;2022-11-12T01:41:02;7.70;;;6.72;;
56653;SDS011;45096;52.302;4.634;2022-11-12T01:43:30;7.32;;;6.47;;
56653;SDS011;45096;52.302;4.634;2022-11-12T01:45:56;11.45;;;7.47;;
56653;SDS011;45096;52.302;4.634;2022-11-12T01:48:24;9.25;;;7.30;;
56653;SDS011;45096;52.302;4.634;2022-11-12T01:50:51;9.13;;;7.53;;
56653;SDS011;45096;52.302;4.634;2022-11-12T01:53:17;10.70;;;7.03;;
56653;SDS011;45096;52.302;4.634;2022-11-12T01:55:43;7.82;;;6.53;;
56653;SDS011;45096;52.302;4.634;2022-11-12T01:58:09;9.48;;;7.78;;
56653;SDS011;45096;52.302;4.634;2022-11-12T02:00:37;10.82;;;7.90;;
56653;SDS011;45096;52.302;4.634;2022-11-12T02:03:05;8.93;;;7.13;;
56653;SDS011;45096;52.302;4.634;2022-11-12T02:05:34;9.20;;;6.47;;
56653;SDS011;45096;52.302;4.634;2022-11-12T02:08:00;9.93;;;7.65;;
56653;SDS011;45096;52.302;4.634;2022-11-12T02:10:27;8.82;;;7.15;;
56653;SDS011;45096;52.302;4.634;2022-11-12T02:12:52;7.82;;;7.03;;
56653;SDS011;45096;52.302;4.634;2022-11-12T02:15:18;11.50;;;8.10;;
56653;SDS011;45096;52.302;4.634;2022-11-12T02:17:44;8.60;;;7.10;;
56653;SDS011;45096;52.302;4.634;2022-11-12T02:20:10;11.23;;;7.85;;
56653;SDS011;45096;52.302;4.634;2022-11-12T02:22:38;9.93;;;7.75;;
56653;SDS011;45096;52.302;4.634;2022-11-12T02:25:03;10.35;;;7.93;;
56653;SDS011;45096;52.302;4.634;2022-11-12T02:27:29;11.30;;;7.90;;
56653;SDS011;45096;52.302;4.634;2022-11-12T02:29:55;12.27;;;9.55;;
56653;SDS011;45096;52.302;4.634;2022-11-12T02:32:20;14.23;;;9.65;;
56653;SDS011;45096;52.302;4.634;2022-11-12T02:34:45;10.98;;;8.85;;
56653;SDS011;45096;52.302;4.634;2022-11-12T02:37:11;11.50;;;8.95;;
56653;SDS011;45096;52.302;4.634;2022-11-12T02:39:38;13.07;;;9.07;;
56653;SDS011;45096;52.302;4.634;2022-11-12T02:42:03;13.45;;;9.20;;
56653;SDS011;45096;52.302;4.634;2022-11-12T02:44:28;11.10;;;8.35;;
56653;SDS011;45096;52.302;4.634;2022-11-12T02:46:54;13.25;;;9.73;;
56653;SDS011;45096;52.302;4.634;2022-11-12T02:49:20;11.05;;;8.70;;
56653;SDS011;45096;52.302;4.634;2022-11-12T02:51:45;13.70;;;10.13;;
56653;SDS011;45096;52.302;4.634;2022-11-12T02:54:11;16.48;;;11.10;;
56653;SDS011;45096;52.302;4.634;2022-11-12T02:56:37;13.85;;;10.07;;
56653;SDS011;45096;52.302;4.634;2022-11-12T02:59:03;14.85;;;11.27;;
56653;SDS011;45096;52.302;4.634;2022-11-12T03:01:28;17.13;;;12.02;;
56653;SDS011;45096;52.302;4.634;2022-11-12T03:03:54;18.05;;;11.88;;
56653;SDS011;45096;52.302;4.634;2022-11-12T03:06:19;17.15;;;12.93;;
56653;SDS011;45096;52.302;4.634;2022-11-12T03:08:44;17.15;;;12.40;;
56653;SDS011;45096;52.302;4.634;2022-11-12T03:11:10;16.40;;;12.30;;
56653;SDS011;45096;52.302;4.634;2022-11-12T03:13:39;17.92;;;13.35;;
56653;SDS011;45096;52.302;4.634;2022-11-12T03:16:05;18.13;;;13.30;;
56653;SDS011;45096;52.302;4.634;2022-11-12T03:18:31;19.95;;;12.80;;
56653;SDS011;45096;52.302;4.634;2022-11-12T03:20:57;19.33;;;12.95;;
56653;SDS011;45096;52.302;4.634;2022-11-12T03:23:22;16.45;;;12.23;;
56653;SDS011;45096;52.302;4.634;2022-11-12T03:25:48;21.25;;;14.35;;
56653;SDS011;45096;52.302;4.634;2022-11-12T03:28:14;18.77;;;12.98;;
56653;SDS011;45096;52.302;4.634;2022-11-12T03:30:41;20.35;;;14.75;;
56653;SDS011;45096;52.302;4.634;2022-11-12T03:33:08;16.65;;;12.18;;
56653;SDS011;45096;52.302;4.634;2022-11-12T03:35:36;20.00;;;13.82;;
56653;SDS011;45096;52.302;4.634;2022-11-12T03:38:01;18.05;;;13.23;;
56653;SDS011;45096;52.302;4.634;2022-11-12T03:40:27;19.25;;;13.77;;
56653;SDS011;45096;52.302;4.634;2022-11-12T03:42:53;22.77;;;15.68;;
56653;SDS011;45096;52.302;4.634;2022-11-12T03:45:19;18.00;;;14.13;;
56653;SDS011;45096;52.302;4.634;2022-11-12T03:47:47;18.08;;;13.45;;
56653;SDS011;45096;52.302;4.634;2022-11-12T03:50:16;20.23;;;14.55;;
56653;SDS011;45096;52.302;4.634;2022-11-12T03:52:43;18.50;;;14.40;;
56653;SDS011;45096;52.302;4.634;2022-11-12T03:55:08;19.88;;;15.35;;
56653;SDS011;45096;52.302;4.634;2022-11-12T03:57:34;20.08;;;14.43;;
56653;SDS011;45096;52.302;4.634;2022-11-12T03:59:59;22.40;;;15.32;;
56653;SDS011;45096;52.302;4.634;2022-11-12T04:02:25;19.88;;;14.02;;
56653;SDS011;45096;52.302;4.634;2022-11-12T04:04:51;20.52;;;14.93;;
56653;SDS011;45096;52.302;4.634;2022-11-12T04:07:17;21.25;;;15.07;;
56653;SDS011;45096;52.302;4.634;2022-11-12T04:09:42;22.65;;;15.73;;
56653;SDS011;45096;52.302;4.634;2022-11-12T04:12:08;21.92;;;16.30;;
56653;SDS011;45096;52.302;4.634;2022-11-12T04:14:33;21.52;;;15.68;;
56653;SDS011;45096;52.302;4.634;2022-11-12T04:16:58;20.33;;;15.25;;
56653;SDS011;45096;52.302;4.634;2022-11-12T04:19:24;23.83;;;15.65;;
56653;SDS011;45096;52.302;4.634;2022-11-12T04:21:51;22.27;;;15.93;;
56653;SDS011;45096;52.302;4.634;2022-11-12T04:24:18;21.75;;;14.77;;
56653;SDS011;45096;52.302;4.634;2022-11-12T04:26:48;24.02;;;16.58;;
56653;SDS011;45096;52.302;4.634;2022-11-12T04:29:13;23.98;;;17.25;;
56653;SDS011;45096;52.302;4.634;2022-11-12T04:31:38;26.02;;;17.63;;
56653;SDS011;45096;52.302;4.634;2022-11-12T04:34:04;27.90;;;18.88;;
56653;SDS011;45096;52.302;4.634;2022-11-12T04:36:29;30.15;;;19.55;;
56653;SDS011;45096;52.302;4.634;2022-11-12T04:38:56;24.90;;;17.20;;
56653;SDS011;45096;52.302;4.634;2022-11-12T04:41:21;25.10;;;16.60;;
56653;SDS011;45096;52.302;4.634;2022-11-12T04:43:47;28.17;;;18.35;;
56653;SDS011;45096;52.302;4.634;2022-11-12T04:46:12;29.40;;;19.10;;
56653;SDS011;45096;52.302;4.634;2022-11-12T04:48:37;32.72;;;20.45;;
56653;SDS011;45096;52.302;4.634;2022-11-12T04:51:04;25.95;;;17.83;;
56653;SDS011;45096;52.302;4.634;2022-11-12T04:53:30;28.30;;;19.17;;
56653;SDS011;45096;52.302;4.634;2022-11-12T04:55:57;29.58;;;19.95;;
56653;SDS011;45096;52.302;4.634;2022-11-12T04:58:22;28.77;;;19.17;;
56653;SDS011;45096;52.302;4.634;2022-11-12T05:00:48;31.55;;;19.85;;
56653;SDS011;45096;52.302;4.634;2022-11-12T05:03:14;30.60;;;18.15;;
56653;SDS011;45096;52.302;4.634;2022-11-12T05:05:40;27.77;;;18.52;;
56653;SDS011;45096;52.302;4.634;2022-11-12T05:08:05;29.27;;;19.95;;
56653;SDS011;45096;52.302;4.634;2022-11-12T05:10:30;30.60;;;19.75;;
56653;SDS011;45096;52.302;4.634;2022-11-12T05:12:57;28.45;;;19.23;;
56653;SDS011;45096;52.302;4.634;2022-11-12T05:15:23;28.48;;;19.45;;
56653;SDS011;45096;52.302;4.634;2022-11-12T05:17:49;30.65;;;19.77;;
56653;SDS011;45096;52.302;4.634;2022-11-12T05:20:14;30.08;;;19.08;;
56653;SDS011;45096;52.302;4.634;2022-11-12T05:22:39;31.25;;;19.73;;
56653;SDS011;45096;52.302;4.634;2022-11-12T05:25:05;30.33;;;18.67;;
56653;SDS011;45096;52.302;4.634;2022-11-12T05:27:31;28.25;;;18.55;;
56653;SDS011;45096;52.302;4.634;2022-11-12T05:29:58;32.28;;;19.20;;
56653;SDS011;45096;52.302;4.634;2022-11-12T05:32:24;30.00;;;20.70;;
56653;SDS011;45096;52.302;4.634;2022-11-12T05:34:49;33.03;;;20.58;;
56653;SDS011;45096;52.302;4.634;2022-11-12T05:37:15;32.03;;;20.20;;
56653;SDS011;45096;52.302;4.634;2022-11-12T05:39:40;28.70;;;19.02;;
56653;SDS011;45096;52.302;4.634;2022-11-12T05:42:06;29.05;;;19.10;;
56653;SDS011;45096;52.302;4.634;2022-11-12T05:44:32;30.95;;;19.27;;
56653;SDS011;45096;52.302;4.634;2022-11-12T05:46:58;31.45;;;19.05;;
56653;SDS011;45096;52.302;4.634;2022-11-12T05:49:24;30.50;;;20.27;;
56653;SDS011;45096;52.302;4.634;2022-11-12T05:51:49;29.55;;;19.20;;
56653;SDS011;45096;52.302;4.634;2022-11-12T05:54:15;34.53;;;20.67;;
56653;SDS011;45096;52.302;4.634;2022-11-12T05:56:40;30.00;;;19.60;;
56653;SDS011;45096;52.302;4.634;2022-11-12T05:59:09;28.95;;;18.42;;
56653;SDS011;45096;52.302;4.634;2022-11-12T06:01:35;31.83;;;19.02;;
56653;SDS011;45096;52.302;4.634;2022-11-12T06:04:02;28.08;;;18.75;;
56653;SDS011;45096;52.302;4.634;2022-11-12T06:06:28;31.08;;;19.33;;
56653;SDS011;45096;52.302;4.634;2022-11-12T06:08:53;29.80;;;19.13;;
56653;SDS011;45096;52.302;4.634;2022-11-12T06:11:18;29.15;;;17.88;;
56653;SDS011;45096;52.302;4.634;2022-11-12T06:13:44;28.35;;;17.02;;
56653;SDS011;45096;52.302;4.634;2022-11-12T06:16:09;27.70;;;18.63;;
56653;SDS011;45096;52.302;4.634;2022-11-12T06:18:35;28.70;;;18.73;;
56653;SDS011;45096;52.302;4.634;2022-11-12T06:21:02;28.52;;;17.33;;
56653;SDS011;45096;52.302;4.634;2022-11-12T06:23:28;26.42;;;17.52;;
56653;SDS011;45096;52.302;4.634;2022-11-12T06:25:53;26.40;;;18.58;;
56653;SDS011;45096;52.302;4.634;2022-11-12T06:28:19;27.55;;;17.88;;
56653;SDS011;45096;52.302;4.634;2022-11-12T06:30:44;23.60;;;16.27;;
56653;SDS011;45096;52.302;4.634;2022-11-12T06:33:10;27.20;;;16.48;;
56653;SDS011;45096;52.302;4.634;2022-11-12T06:35:35;27.63;;;17.42;;
56653;SDS011;45096;52.302;4.634;2022-11-12T06:38:02;25.85;;;16.70;;
56653;SDS011;45096;52.302;4.634;2022-11-12T06:40:27;24.35;;;17.88;;
56653;SDS011;45096;52.302;4.634;2022-11-12T06:42:55;27.48;;;16.98;;
56653;SDS011;45096;52.302;4.634;2022-11-12T06:45:21;26.13;;;16.98;;
56653;SDS011;45096;52.302;4.634;2022-11-12T06:47:47;29.08;;;17.70;;
56653;SDS011;45096;52.302;4.634;2022-11-12T06:50:12;27.52;;;17.90;;
56653;SDS011;45096;52.302;4.634;2022-11-12T06:52:38;26.67;;;17.08;;
56653;SDS011;45096;52.302;4.634;2022-11-12T06:55:05;28.77;;;17.77;;
56653;SDS011;45096;52.302;4.634;2022-11-12T06:57:31;30.08;;;19.05;;
56653;SDS011;45096;52.302;4.634;2022-11-12T06:59:56;26.35;;;16.65;;
56653;SDS011;45096;52.302;4.634;2022-11-12T07:02:22;26.38;;;17.02;;
56653;SDS011;45096;52.302;4.634;2022-11-12T07:04:47;29.23;;;18.40;;
56653;SDS011;45096;52.302;4.634;2022-11-12T07:07:12;28.35;;;17.95;;
56653;SDS011;45096;52.302;4.634;2022-11-12T07:09:38;27.60;;;17.90;;
56653;SDS011;45096;52.302;4.634;2022-11-12T07:12:05;29.40;;;17.17;;
56653;SDS011;45096;52.302;4.634;2022-11-12T07:14:31;24.90;;;17.33;;
56653;SDS011;45096;52.302;4.634;2022-11-12T07:16:56;24.40;;;16.10;;
56653;SDS011;45096;52.302;4.634;2022-11-12T07:19:21;25.52;;;16.77;;
56653;SDS011;45096;52.302;4.634;2022-11-12T07:21:47;25.05;;;16.67;;
56653;SDS011;45096;52.302;4.634;2022-11-12T07:24:12;25.80;;;17.63;;
56653;SDS011;45096;52.302;4.634;2022-11-12T07:26:37;23.85;;;15.93;;
56653;SDS011;45096;52.302;4.634;2022-11-12T07:29:04;24.73;;;15.55;;
56653;SDS011;45096;52.302;4.634;2022-11-12T07:31:30;22.50;;;15.43;;
56653;SDS011;45096;52.302;4.634;2022-11-12T07:33:55;22.83;;;15.20;;
56653;SDS011;45096;52.302;4.634;2022-11-12T07:36:21;20.80;;;14.10;;
56653;SDS011;45096;52.302;4.634;2022-11-12T07:38:46;22.65;;;14.75;;
56653;SDS011;45096;52.302;4.634;2022-11-12T07:41:15;22.52;;;15.23;;
56653;SDS011;45096;52.302;4.634;2022-11-12T07:43:42;22.33;;;14.57;;
56653;SDS011;45096;52.302;4.634;2022-11-12T07:46:11;22.52;;;15.20;;
56653;SDS011;45096;52.302;4.634;2022-11-12T07:48:37;20.25;;;14.00;;
56653;SDS011;45096;52.302;4.634;2022-11-12T07:51:04;20.35;;;13.73;;
56653;SDS011;45096;52.302;4.634;2022-11-12T07:53:30;23.58;;;14.40;;
56653;SDS011;45096;52.302;4.634;2022-11-12T07:55:56;20.60;;;13.90;;
56653;SDS011;45096;52.302;4.634;2022-11-12T07:58:22;22.08;;;14.90;;
56653;SDS011;45096;52.302;4.634;2022-11-12T08:00:48;22.55;;;14.85;;
56653;SDS011;45096;52.302;4.634;2022-11-12T08:03:15;19.00;;;13.82;;
56653;SDS011;45096;52.302;4.634;2022-11-12T08:05:40;20.48;;;13.75;;
56653;SDS011;45096;52.302;4.634;2022-11-12T08:08:06;21.13;;;13.52;;
56653;SDS011;45096;52.302;4.634;2022-11-12T08:10:31;21.35;;;14.23;;
56653;SDS011;45096;52.302;4.634;2022-11-12T08:12:57;18.33;;;12.40;;
56653;SDS011;45096;52.302;4.634;2022-11-12T08:15:22;17.60;;;12.23;;
56653;SDS011;45096;52.302;4.634;2022-11-12T08:17:48;19.58;;;12.77;;
56653;SDS011;45096;52.302;4.634;2022-11-12T08:20:15;17.98;;;12.55;;
56653;SDS011;45096;52.302;4.634;2022-11-12T08:22:40;18.58;;;12.43;;
56653;SDS011;45096;52.302;4.634;2022-11-12T08:25:06;19.40;;;13.50;;
56653;SDS011;45096;52.302;4.634;2022-11-12T08:27:32;17.35;;;11.50;;
56653;SDS011;45096;52.302;4.634;2022-11-12T08:29:57;22.10;;;14.35;;
56653;SDS011;45096;52.302;4.634;2022-11-12T08:32:23;34.65;;;20.92;;
56653;SDS011;45096;52.302;4.634;2022-11-12T08:34:48;35.55;;;22.73;;
56653;SDS011;45096;52.302;4.634;2022-11-12T08:37:15;35.22;;;22.85;;
56653;SDS011;45096;52.302;4.634;2022-11-12T08:39:40;33.75;;;22.88;;
56653;SDS011;45096;52.302;4.634;2022-11-12T08:42:06;33.92;;;21.27;;
56653;SDS011;45096;52.302;4.634;2022-11-12T08:44:31;30.23;;;20.90;;
56653;SDS011;45096;52.302;4.634;2022-11-12T08:46:57;33.67;;;21.80;;
56653;SDS011;45096;52.302;4.634;2022-11-12T08:49:22;29.20;;;19.17;;
56653;SDS011;45096;52.302;4.634;2022-11-12T08:51:47;31.85;;;20.90;;
56653;SDS011;45096;52.302;4.634;2022-11-12T08:54:14;31.38;;;20.27;;
56653;SDS011;45096;52.302;4.634;2022-11-12T08:56:40;27.20;;;19.02;;
56653;SDS011;45096;52.302;4.634;2022-11-12T08:59:05;27.13;;;18.58;;
56653;SDS011;45096;52.302;4.634;2022-11-12T09:01:30;28.75;;;18.23;;
56653;SDS011;45096;52.302;4.634;2022-11-12T09:03:56;27.50;;;18.23;;
56653;SDS011;45096;52.302;4.634;2022-11-12T09:06:21;27.20;;;17.90;;
56653;SDS011;45096;52.302;4.634;2022-11-12T09:08:47;27.05;;;17.75;;
56653;SDS011;45096;52.302;4.634;2022-11-12T09:11:13;25.80;;;17.48;;
56653;SDS011;45096;52.302;4.634;2022-11-12T09:13:39;25.20;;;17.95;;
56653;SDS011;45096;52.302;4.634;2022-11-12T09:16:05;25.10;;;17.00;;
56653;SDS011;45096;52.302;4.634;2022-11-12T09:18:31;23.83;;;16.23;;
56653;SDS011;45096;52.302;4.634;2022-11-12T09:21:00;22.65;;;16.02;;
56653;SDS011;45096;52.302;4.634;2022-11-12T09:23:26;50.63;;;33.38;;
56653;SDS011;45096;52.302;4.634;2022-11-12T09:25:53;60.55;;;37.08;;
56653;SDS011;45096;52.302;4.634;2022-11-12T09:28:20;63.50;;;38.78;;
56653;SDS011;45096;52.302;4.634;2022-11-12T09:30:46;49.42;;;33.42;;
56653;SDS011;45096;52.302;4.634;2022-11-12T09:33:12;47.58;;;32.28;;
56653;SDS011;45096;52.302;4.634;2022-11-12T09:35:38;56.75;;;35.88;;
56653;SDS011;45096;52.302;4.634;2022-11-12T09:38:03;57.20;;;35.72;;
56653;SDS011;45096;52.302;4.634;2022-11-12T09:40:31;49.40;;;32.85;;
56653;SDS011;45096;52.302;4.634;2022-11-12T09:43:09;47.17;;;31.65;;
56653;SDS011;45096;52.302;4.634;2022-11-12T09:45:40;44.22;;;28.23;;
56653;SDS011;45096;52.302;4.634;2022-11-12T09:48:07;36.80;;;26.05;;
56653;SDS011;45096;52.302;4.634;2022-11-12T09:50:35;40.95;;;28.38;;
56653;SDS011;45096;52.302;4.634;2022-11-12T09:53:04;35.97;;;23.60;;
56653;SDS011;45096;52.302;4.634;2022-11-12T09:55:35;34.33;;;24.83;;
56653;SDS011;45096;52.302;4.634;2022-11-12T09:58:04;40.22;;;26.15;;
56653;SDS011;45096;52.302;4.634;2022-11-12T10:00:33;32.95;;;22.52;;
56653;SDS011;45096;52.302;4.634;2022-11-12T10:03:01;34.10;;;22.35;;
56653;SDS011;45096;52.302;4.634;2022-11-12T10:05:31;33.65;;;21.80;;
56653;SDS011;45096;52.302;4.634;2022-11-12T10:08:01;31.80;;;22.48;;
56653;SDS011;45096;52.302;4.634;2022-11-12T10:10:33;30.02;;;21.08;;
56653;SDS011;45096;52.302;4.634;2022-11-12T10:13:08;28.90;;;21.98;;
56653;SDS011;45096;52.302;4.634;2022-11-12T10:15:52;27.98;;;19.85;;
56653;SDS011;45096;52.302;4.634;2022-11-12T10:18:37;26.13;;;19.65;;
56653;SDS011;45096;52.302;4.634;2022-11-12T10:21:11;26.05;;;18.52;;
56653;SDS011;45096;52.302;4.634;2022-11-12T10:23:40;28.95;;;20.35;;
56653;SDS011;45096;52.302;4.634;2022-11-12T10:26:09;23.70;;;17.35;;
56653;SDS011;45096;52.302;4.634;2022-11-12T10:28:37;19.92;;;16.13;;
56653;SDS011;45096;52.302;4.634;2022-11-12T10:31:05;18.67;;;14.57;;
56653;SDS011;45096;52.302;4.634;2022-11-12T10:33:35;14.93;;;13.23;;
56653;SDS011;45096;52.302;4.634;2022-11-12T10:36:14;16.90;;;13.00;;
56653;SDS011;45096;52.302;4.634;2022-11-12T10:38:43;14.40;;;12.60;;
56653;SDS011;45096;52.302;4.634;2022-11-12T10:41:19;16.77;;;12.23;;
56653;SDS011;45096;52.302;4.634;2022-11-12T10:43:57;16.45;;;11.98;;
56653;SDS011;45096;52.302;4.634;2022-11-12T10:46:23;16.80;;;13.05;;
56653;SDS011;45096;52.302;4.634;2022-11-12T10:48:55;15.85;;;12.05;;
56653;SDS011;45096;52.302;4.634;2022-11-12T10:51:23;15.10;;;11.98;;
56653;SDS011;45096;52.302;4.634;2022-11-12T10:53:50;15.68;;;11.68;;
56653;SDS011;45096;52.302;4.634;2022-11-12T10:56:22;14.50;;;12.48;;
56653;SDS011;45096;52.302;4.634;2022-11-12T10:59:03;15.77;;;12.30;;
56653;SDS011;45096;52.302;4.634;2022-11-12T11:01:33;17.23;;;11.73;;
56653;SDS011;45096;52.302;4.634;2022-11-12T11:04:00;13.10;;;11.43;;
56653;SDS011;45096;52.302;4.634;2022-11-12T11:06:25;14.73;;;11.88;;
56653;SDS011;45096;52.302;4.634;2022-11-12T11:08:51;15.50;;;11.80;;
56653;SDS011;45096;52.302;4.634;2022-11-12T11:11:19;16.20;;;11.95;;
56653;SDS011;45096;52.302;4.634;2022-11-12T11:13:46;17.95;;;11.85;;
56653;SDS011;45096;52.302;4.634;2022-11-12T11:16:12;17.83;;;12.15;;
56653;SDS011;45096;52.302;4.634;2022-11-12T11:18:40;13.43;;;11.80;;
56653;SDS011;45096;52.302;4.634;2022-11-12T11:21:12;13.00;;;11.48;;
56653;SDS011;45096;52.302;4.634;2022-11-12T11:23:45;17.35;;;11.40;;
56653;SDS011;45096;52.302;4.634;2022-11-12T11:26:18;13.05;;;10.45;;
56653;SDS011;45096;52.302;4.634;2022-11-12T11:28:53;15.00;;;10.75;;
56653;SDS011;45096;52.302;4.634;2022-11-12T11:31:25;12.23;;;9.50;;
56653;SDS011;45096;52.302;4.634;2022-11-12T11:33:56;10.82;;;9.63;;
56653;SDS011;45096;52.302;4.634;2022-11-12T11:36:35;12.02;;;9.45;;
56653;SDS011;45096;52.302;4.634;2022-11-12T11:39:06;13.07;;;9.68;;
56653;SDS011;45096;52.302;4.634;2022-11-12T11:41:44;10.90;;;9.13;;
56653;SDS011;45096;52.302;4.634;2022-11-12T11:44:15;14.18;;;9.88;;
56653;SDS011;45096;52.302;4.634;2022-11-12T11:46:49;11.00;;;8.80;;
56653;SDS011;45096;52.302;4.634;2022-11-12T11:49:25;9.27;;;8.38;;
56653;SDS011;45096;52.302;4.634;2022-11-12T11:52:43;9.70;;;7.40;;
56653;SDS011;45096;52.302;4.634;2022-11-12T11:55:15;11.95;;;8.50;;
56653;SDS011;45096;52.302;4.634;2022-11-12T11:57:47;8.80;;;7.90;;
56653;SDS011;45096;52.302;4.634;2022-11-12T12:00:21;11.02;;;7.63;;
56653;SDS011;45096;52.302;4.634;2022-11-12T12:02:54;10.10;;;8.35;;
56653;SDS011;45096;52.302;4.634;2022-11-12T12:05:45;10.63;;;8.55;;
56653;SDS011;45096;52.302;4.634;2022-11-12T12:08:18;10.77;;;9.25;;
56653;SDS011;45096;52.302;4.634;2022-11-12T12:10:51;10.57;;;8.25;;
56653;SDS011;45096;52.302;4.634;2022-11-12T12:13:24;8.35;;;7.38;;
56653;SDS011;45096;52.302;4.634;2022-11-12T12:15:59;8.63;;;7.72;;
56653;SDS011;45096;52.302;4.634;2022-11-12T12:18:45;8.77;;;7.32;;
56653;SDS011;45096;52.302;4.634;2022-11-12T12:21:16;7.13;;;6.45;;
56653;SDS011;45096;52.302;4.634;2022-11-12T12:23:45;8.43;;;7.05;;
56653;SDS011;45096;52.302;4.634;2022-11-12T12:26:11;6.57;;;5.80;;
56653;SDS011;45096;52.302;4.634;2022-11-12T12:28:40;6.75;;;6.15;;
56653;SDS011;45096;52.302;4.634;2022-11-12T12:31:11;8.02;;;6.82;;
56653;SDS011;45096;52.302;4.634;2022-11-12T12:33:41;6.13;;;5.50;;
56653;SDS011;45096;52.302;4.634;2022-11-12T12:36:08;7.47;;;6.78;;
56653;SDS011;45096;52.302;4.634;2022-11-12T12:38:36;6.18;;;5.63;;
56653;SDS011;45096;52.302;4.634;2022-11-12T12:41:08;7.30;;;5.85;;
56653;SDS011;45096;52.302;4.634;2022-11-12T12:43:37;5.75;;;5.15;;
56653;SDS011;45096;52.302;4.634;2022-11-12T12:46:08;6.70;;;5.97;;
56653;SDS011;45096;52.302;4.634;2022-11-12T12:48:36;5.40;;;4.95;;
56653;SDS011;45096;52.302;4.634;2022-11-12T12:51:02;6.75;;;5.63;;
56653;SDS011;45096;52.302;4.634;2022-11-12T12:53:31;6.80;;;6.10;;
56653;SDS011;45096;52.302;4.634;2022-11-12T12:55:58;7.15;;;5.32;;
56653;SDS011;45096;52.302;4.634;2022-11-12T12:58:26;5.68;;;5.20;;
56653;SDS011;45096;52.302;4.634;2022-11-12T13:00:55;6.13;;;4.95;;
56653;SDS011;45096;52.302;4.634;2022-11-12T13:06:12;5.75;;;4.95;;
56653;SDS011;45096;52.302;4.634;2022-11-12T13:08:39;5.47;;;4.95;;
56653;SDS011;45096;52.302;4.634;2022-11-12T13:11:05;6.53;;;5.43;;
56653;SDS011;45096;52.302;4.634;2022-11-12T13:13:33;6.15;;;5.55;;
56653;SDS011;45096;52.302;4.634;2022-11-12T13:15:59;5.38;;;4.97;;
56653;SDS011;45096;52.302;4.634;2022-11-12T13:21:25;5.20;;;4.70;;
56653;SDS011;45096;52.302;4.634;2022-11-12T13:23:51;5.82;;;5.25;;
56653;SDS011;45096;52.302;4.634;2022-11-12T13:29:19;5.72;;;5.00;;
56653;SDS011;45096;52.302;4.634;2022-11-12T13:34:50;5.05;;;4.60;;
56653;SDS011;45096;52.302;4.634;2022-11-12T13:37:40;6.38;;;4.40;;
56653;SDS011;45096;52.302;4.634;2022-11-12T13:40:08;6.80;;;4.90;;
56653;SDS011;45096;52.302;4.634;2022-11-12T13:42:36;5.50;;;5.10;;
56653;SDS011;45096;52.302;4.634;2022-11-12T13:45:03;5.20;;;4.75;;
56653;SDS011;45096;52.302;4.634;2022-11-12T13:47:29;5.10;;;4.63;;
56653;SDS011;45096;52.302;4.634;2022-11-12T13:49:56;5.15;;;4.53;;
56653;SDS011;45096;52.302;4.634;2022-11-12T13:52:24;4.72;;;4.32;;
56653;SDS011;45096;52.302;4.634;2022-11-12T13:54:59;5.50;;;4.80;;
56653;SDS011;45096;52.302;4.634;2022-11-12T13:57:27;4.65;;;4.25;;
56653;SDS011;45096;52.302;4.634;2022-11-12T14:02:44;6.07;;;4.95;;
56653;SDS011;45096;52.302;4.634;2022-11-12T14:05:12;5.30;;;4.80;;
56653;SDS011;45096;52.302;4.634;2022-11-12T14:07:39;10.70;;;5.18;;
56653;SDS011;45096;52.302;4.634;2022-11-12T14:10:10;5.10;;;4.65;;
56653;SDS011;45096;52.302;4.634;2022-11-12T14:12:43;5.15;;;4.68;;
56653;SDS011;45096;52.302;4.634;2022-11-12T14:15:22;5.40;;;4.82;;
56653;SDS011;45096;52.302;4.634;2022-11-12T14:17:54;5.65;;;5.05;;
56653;SDS011;45096;52.302;4.634;2022-11-12T14:20:23;5.43;;;4.93;;
56653;SDS011;45096;52.302;4.634;2022-11-12T14:22:49;5.22;;;4.82;;
56653;SDS011;45096;52.302;4.634;2022-11-12T14:25:16;5.18;;;4.68;;
56653;SDS011;45096;52.302;4.634;2022-11-12T14:27:42;5.97;;;5.10;;
56653;SDS011;45096;52.302;4.634;2022-11-12T14:30:18;6.30;;;5.55;;
56653;SDS011;45096;52.302;4.634;2022-11-12T14:32:47;6.05;;;5.40;;
56653;SDS011;45096;52.302;4.634;2022-11-12T14:35:16;5.63;;;4.53;;
56653;SDS011;45096;52.302;4.634;2022-11-12T14:37:43;5.30;;;4.80;;
56653;SDS011;45096;52.302;4.634;2022-11-12T14:40:13;5.82;;;5.20;;
56653;SDS011;45096;52.302;4.634;2022-11-12T14:42:39;5.07;;;4.68;;
56653;SDS011;45096;52.302;4.634;2022-11-12T14:45:09;7.63;;;5.05;;
56653;SDS011;45096;52.302;4.634;2022-11-12T14:47:39;4.53;;;4.13;;